Time;durP1;ratioP1;P1;durP2;ratioP2;P2;SDS_P1;SDS_P2;PMS_P1;PMS_P2;Temp;Humidity;BMP_temperature;BMP_pressure;BME280_temperature;BME280_humidity;BME280_pressure;Samples;Min_cycle;Max_cycle;Signal;HPM_P1;HPM_P2
2022/07/10 00:00:58;;;;;;;2.97;2.72;;;13.10;99.90;;;;;;5040350;28;20502;-85
2022/07/10 00:03:24;;;;;;;2.92;2.63;;;13.10;99.90;;;;;;5052353;28;20032;-85
2022/07/10 00:05:50;;;;;;;2.75;2.55;;;13.10;99.90;;;;;;5063712;28;20069;-85
2022/07/10 00:08:16;;;;;;;3.38;2.95;;;13.20;99.90;;;;;;5039679;28;20495;-84
2022/07/10 00:10:42;;;;;;;2.55;2.35;;;13.10;99.90;;;;;;5056535;28;20418;-85
2022/07/10 00:13:07;;;;;;;3.83;2.88;;;13.10;99.90;;;;;;5005909;28;20029;-84
2022/07/10 00:15:33;;;;;;;3.00;2.70;;;13.20;99.90;;;;;;5039772;28;20067;-84
2022/07/10 00:17:59;;;;;;;2.75;2.55;;;13.10;99.90;;;;;;5039596;28;20544;-85
2022/07/10 00:20:25;;;;;;;4.57;2.90;;;13.20;99.90;;;;;;5030620;28;20508;-84
2022/07/10 00:22:51;;;;;;;2.97;2.72;;;13.20;99.90;;;;;;5050012;28;20028;-83
2022/07/10 00:25:17;;;;;;;3.40;2.53;;;13.20;99.90;;;;;;5040522;28;20542;-84
2022/07/10 00:27:42;;;;;;;2.67;2.45;;;13.20;99.90;;;;;;5023701;28;20479;-85
2022/07/10 00:30:09;;;;;;;4.15;2.65;;;13.20;99.90;;;;;;5040171;28;20037;-85
2022/07/10 00:32:36;;;;;;;3.75;2.40;;;13.30;99.90;;;;;;5020744;28;20043;-84
2022/07/10 00:35:03;;;;;;;3.22;2.97;;;13.30;99.90;;;;;;5020623;28;20039;-84
2022/07/10 00:37:29;;;;;;;3.53;2.88;;;13.30;99.90;;;;;;5020097;28;20044;-84
2022/07/10 00:39:55;;;;;;;4.22;2.35;;;13.30;99.90;;;;;;5053159;28;20059;-84
2022/07/10 00:42:21;;;;;;;2.90;2.40;;;13.30;99.90;;;;;;5022211;28;20486;-84
2022/07/10 00:44:47;;;;;;;2.70;2.50;;;13.40;99.90;;;;;;5043094;28;20032;-84
2022/07/10 00:47:17;;;;;;;3.53;2.50;;;13.40;99.90;;;;;;5059321;28;20072;-85
2022/07/10 00:49:43;;;;;;;2.53;2.33;;;13.40;99.90;;;;;;5024542;28;20064;-84
2022/07/10 00:52:13;;;;;;;2.70;2.50;;;13.40;99.90;;;;;;5052594;28;20559;-83
2022/07/10 00:54:42;;;;;;;3.45;2.90;;;13.40;99.90;;;;;;5036894;28;20498;-85
2022/07/10 00:57:08;;;;;;;2.60;2.40;;;13.50;99.90;;;;;;5039743;28;20032;-83
2022/07/10 00:59:35;;;;;;;2.60;2.40;;;13.50;99.90;;;;;;5054967;28;20036;-85
2022/07/10 01:02:02;;;;;;;2.50;2.30;;;13.50;99.90;;;;;;5054179;28;20487;-85
2022/07/10 01:04:29;;;;;;;2.85;2.30;;;13.50;99.90;;;;;;5071885;28;20064;-86
2022/07/10 01:06:54;;;;;;;5.68;2.10;;;13.50;99.90;;;;;;5037893;28;20078;-86
2022/07/10 01:09:20;;;;;;;3.30;2.22;;;13.50;99.90;;;;;;5022289;28;20029;-84
2022/07/10 01:11:46;;;;;;;3.92;2.35;;;13.40;99.90;;;;;;5023518;28;20063;-85
2022/07/10 01:14:12;;;;;;;1.73;1.63;;;13.40;99.90;;;;;;5040046;28;20036;-85
2022/07/10 01:16:38;;;;;;;3.33;2.13;;;13.40;99.90;;;;;;5040376;28;20037;-89
2022/07/10 01:19:06;;;;;;;2.30;2.10;;;13.40;99.90;;;;;;5052590;28;20033;-84
2022/07/10 01:21:36;;;;;;;2.90;1.70;;;13.40;99.90;;;;;;5024205;28;20039;-88
2022/07/10 01:24:11;;;;;;;2.30;1.85;;;13.40;99.90;;;;;;5056444;28;20548;-83
2022/07/10 01:26:41;;;;;;;3.72;2.03;;;13.30;99.90;;;;;;5048541;28;20024;-87
2022/07/10 01:29:08;;;;;;;5.22;1.75;;;13.30;99.90;;;;;;5038781;28;20581;-86
2022/07/10 01:31:34;;;;;;;1.60;1.50;;;13.30;99.90;;;;;;5055781;28;20056;-83
2022/07/10 01:34:01;;;;;;;1.77;1.40;;;13.30;99.90;;;;;;5006733;28;20067;-84
2022/07/10 01:36:31;;;;;;;1.77;1.67;;;13.30;99.90;;;;;;5041557;28;20521;-86
2022/07/10 01:38:58;;;;;;;1.50;1.40;;;13.20;99.90;;;;;;5060473;28;20036;-86
2022/07/10 01:41:24;;;;;;;1.58;1.38;;;13.20;99.90;;;;;;5035006;28;20055;-85
2022/07/10 01:43:51;;;;;;;2.28;1.30;;;13.20;99.90;;;;;;5034524;28;20021;-87
2022/07/10 01:46:17;;;;;;;2.50;1.48;;;13.20;99.90;;;;;;5035142;28;20056;-87
2022/07/10 01:48:43;;;;;;;3.85;1.20;;;13.20;99.90;;;;;;5037372;28;20485;-85
2022/07/10 01:51:10;;;;;;;1.45;1.00;;;13.20;99.90;;;;;;5033582;28;20492;-84
2022/07/10 01:53:36;;;;;;;1.02;1.00;;;13.10;99.90;;;;;;5033512;28;20124;-88
2022/07/10 01:56:06;;;;;;;1.20;1.10;;;13.10;99.90;;;;;;5040535;28;20070;-87
2022/07/10 01:58:31;;;;;;;4.00;1.00;;;13.10;99.90;;;;;;5033581;28;20651;-88
2022/07/10 02:00:57;;;;;;;2.78;0.95;;;13.10;99.90;;;;;;5020139;28;20033;-87
2022/07/10 02:06:24;;;;;;;4.88;1.30;;;13.00;99.90;;;;;;4978849;28;20058;-89
2022/07/10 02:08:50;;;;;;;1.52;1.10;;;12.90;99.90;;;;;;5003786;28;20488;-87
2022/07/10 02:11:16;;;;;;;2.67;1.17;;;12.90;99.90;;;;;;5045759;28;20024;-87
2022/07/10 02:13:42;;;;;;;1.73;0.93;;;12.90;99.90;;;;;;5019330;28;20505;-88
2022/07/10 02:16:08;;;;;;;2.22;1.17;;;12.80;99.90;;;;;;5055320;28;20117;-88
2022/07/10 02:18:34;;;;;;;1.33;1.02;;;12.70;99.90;;;;;;5035794;28;20033;-87
2022/07/10 02:20:59;;;;;;;1.60;1.05;;;12.70;99.90;;;;;;5040218;28;20033;-85
2022/07/10 02:23:25;;;;;;;0.90;0.90;;;12.60;99.90;;;;;;5053095;28;20751;-89
2022/07/10 02:25:51;;;;;;;1.17;0.77;;;12.60;99.90;;;;;;5046450;28;20037;-89
2022/07/10 02:28:17;;;;;;;2.85;0.93;;;12.50;99.90;;;;;;5019061;28;20078;-88
2022/07/10 02:30:43;;;;;;;1.33;0.90;;;12.50;99.90;;;;;;5016957;28;20032;-87
2022/07/10 02:33:08;;;;;;;1.25;0.82;;;12.40;99.90;;;;;;5005721;28;20029;-85
2022/07/10 02:35:34;;;;;;;1.35;0.75;;;12.40;99.90;;;;;;5040043;28;20230;-87
2022/07/10 02:38:00;;;;;;;2.88;0.85;;;12.40;99.90;;;;;;5003399;28;20033;-87
2022/07/10 02:40:26;;;;;;;0.75;0.75;;;12.40;99.90;;;;;;5004664;28;20036;-87
2022/07/10 02:42:51;;;;;;;2.85;0.82;;;12.30;99.90;;;;;;5037594;28;20619;-87
2022/07/10 02:45:17;;;;;;;2.33;0.90;;;12.30;99.90;;;;;;5004679;28;20032;-87
2022/07/10 02:47:43;;;;;;;0.90;0.80;;;12.30;99.90;;;;;;5020823;28;20037;-86
2022/07/10 02:50:09;;;;;;;1.45;1.05;;;12.20;99.90;;;;;;5022329;28;20033;-87
2022/07/10 02:52:35;;;;;;;3.40;1.02;;;12.20;99.90;;;;;;5071180;28;20511;-87
2022/07/10 02:55:03;;;;;;;0.85;0.80;;;12.20;99.90;;;;;;5054471;28;20032;-86
2022/07/10 02:57:29;;;;;;;0.70;0.70;;;12.10;99.90;;;;;;5057336;28;20074;-87
2022/07/10 02:59:55;;;;;;;1.67;0.93;;;12.10;99.90;;;;;;5024633;28;20506;-87
2022/07/10 03:02:20;;;;;;;1.73;0.98;;;12.00;99.90;;;;;;5006017;28;20115;-87
2022/07/10 03:04:46;;;;;;;2.65;0.90;;;12.00;99.90;;;;;;5038438;28;20128;-87
2022/07/10 03:07:12;;;;;;;2.85;0.77;;;11.90;99.90;;;;;;5057431;28;20083;-87
2022/07/10 03:09:38;;;;;;;2.08;1.10;;;11.90;99.90;;;;;;5025344;28;20454;-88
2022/07/10 03:12:04;;;;;;;2.78;1.20;;;11.80;99.90;;;;;;5042236;28;20401;-87
2022/07/10 03:14:29;;;;;;;2.03;1.13;;;11.80;99.90;;;;;;5025858;28;20029;-87
2022/07/10 03:16:55;;;;;;;2.60;0.90;;;11.80;99.90;;;;;;5062430;28;20551;-86
2022/07/10 03:19:21;;;;;;;1.50;0.90;;;11.80;99.90;;;;;;5007997;28;20434;-87
2022/07/10 03:21:47;;;;;;;1.10;0.90;;;11.80;99.90;;;;;;5036379;28;20522;-87
2022/07/10 03:24:12;;;;;;;1.13;0.90;;;11.80;99.90;;;;;;5060154;28;20475;-86
2022/07/10 03:26:38;;;;;;;1.73;1.00;;;11.80;99.90;;;;;;5043139;28;20029;-86
2022/07/10 03:29:04;;;;;;;1.52;1.00;;;11.80;99.90;;;;;;5042510;28;20106;-86
2022/07/10 03:31:30;;;;;;;0.93;0.88;;;11.80;99.90;;;;;;5055321;28;20037;-87
2022/07/10 03:33:55;;;;;;;1.10;0.98;;;11.80;99.90;;;;;;5038300;28;20041;-87
2022/07/10 03:36:21;;;;;;;2.85;1.20;;;11.80;99.90;;;;;;5058800;28;20039;-86
2022/07/10 03:38:47;;;;;;;0.95;0.90;;;11.80;99.90;;;;;;5058301;28;20036;-86
2022/07/10 03:41:16;;;;;;;1.35;0.75;;;11.80;99.90;;;;;;5032698;28;20033;-86
2022/07/10 03:43:42;;;;;;;2.28;1.00;;;11.80;99.90;;;;;;5041243;28;20035;-86
2022/07/10 03:46:07;;;;;;;2.25;0.68;;;11.80;99.90;;;;;;5006355;28;20063;-86
2022/07/10 03:48:33;;;;;;;2.38;0.80;;;11.80;99.90;;;;;;5037974;28;20033;-86
2022/07/10 03:51:00;;;;;;;1.15;0.85;;;11.70;99.90;;;;;;5033187;28;20403;-87
2022/07/10 03:53:27;;;;;;;1.38;0.80;;;11.80;99.90;;;;;;5058412;28;20032;-88
2022/07/10 03:55:53;;;;;;;1.90;0.80;;;11.70;99.90;;;;;;5042596;28;20043;-87
2022/07/10 03:58:20;;;;;;;2.60;0.93;;;11.70;99.90;;;;;;5058559;28;20031;-88
2022/07/10 04:00:46;;;;;;;2.42;1.00;;;11.70;99.90;;;;;;5074725;28;20074;-86
2022/07/10 04:03:13;;;;;;;1.30;0.88;;;11.60;99.90;;;;;;5057729;28;20029;-85
2022/07/10 04:05:39;;;;;;;2.75;1.00;;;11.60;99.90;;;;;;5054492;28;20029;-87
2022/07/10 04:08:06;;;;;;;1.75;0.80;;;11.60;99.90;;;;;;5039085;28;20048;-86
2022/07/10 04:10:32;;;;;;;3.20;1.10;;;11.60;99.90;;;;;;5056151;28;20119;-86
2022/07/10 04:12:58;;;;;;;3.03;0.90;;;11.60;99.90;;;;;;5038844;28;20064;-86
2022/07/10 04:15:24;;;;;;;1.88;0.95;;;11.60;99.90;;;;;;5055255;28;20060;-85
2022/07/10 04:17:50;;;;;;;0.85;0.80;;;11.60;99.90;;;;;;5039030;28;20037;-87
2022/07/10 04:20:17;;;;;;;1.65;0.90;;;11.70;99.90;;;;;;5039355;28;20049;-85
2022/07/10 04:22:43;;;;;;;2.15;0.80;;;11.60;99.90;;;;;;5040837;28;20047;-86
2022/07/10 04:25:09;;;;;;;0.85;0.75;;;11.60;99.90;;;;;;5058335;28;20479;-86
2022/07/10 04:27:35;;;;;;;3.28;1.02;;;11.60;99.90;;;;;;5055751;28;20033;-86
2022/07/10 04:30:02;;;;;;;1.40;0.80;;;11.70;99.90;;;;;;5003461;28;20029;-86
2022/07/10 04:32:28;;;;;;;2.60;1.00;;;11.70;99.90;;;;;;5022013;28;20036;-86
2022/07/10 04:35:00;;;;;;;1.27;1.17;;;11.70;99.90;;;;;;5014425;28;20538;-87
2022/07/10 04:37:26;;;;;;;4.28;0.88;;;11.80;99.90;;;;;;5070331;28;20103;-87
2022/07/10 04:39:52;;;;;;;4.35;0.93;;;11.90;99.90;;;;;;5021944;28;20558;-88
2022/07/10 04:42:18;;;;;;;0.82;0.82;;;12.00;99.90;;;;;;5016341;28;20037;-87
2022/07/10 04:44:43;;;;;;;2.10;1.00;;;12.00;99.90;;;;;;5035206;28;20029;-88
2022/07/10 04:47:09;;;;;;;2.10;1.00;;;12.10;99.90;;;;;;5035520;28;20063;-87
2022/07/10 04:49:35;;;;;;;3.78;0.75;;;12.20;99.90;;;;;;5035220;28;20043;-87
2022/07/10 04:52:01;;;;;;;2.80;1.05;;;12.20;99.90;;;;;;5034498;28;20034;-87
2022/07/10 04:54:27;;;;;;;1.38;0.82;;;12.30;99.90;;;;;;5054439;28;20039;-89
2022/07/10 04:56:53;;;;;;;1.05;0.80;;;12.30;99.90;;;;;;5038690;28;20546;-88
2022/07/10 04:59:19;;;;;;;0.80;0.80;;;12.30;99.90;;;;;;5037994;28;20032;-87
2022/07/10 05:01:45;;;;;;;0.80;0.77;;;12.40;99.90;;;;;;5073513;28;20028;-87
2022/07/10 05:04:11;;;;;;;3.72;0.80;;;12.40;99.90;;;;;;5071646;28;20036;-87
2022/07/10 05:06:37;;;;;;;0.73;0.63;;;12.40;99.90;;;;;;5073616;28;20036;-87
2022/07/10 05:09:03;;;;;;;2.97;0.85;;;12.40;99.90;;;;;;5049129;28;20029;-87
2022/07/10 05:11:30;;;;;;;1.65;0.90;;;12.50;99.90;;;;;;5038560;28;20079;-88
2022/07/10 05:13:56;;;;;;;2.15;1.13;;;12.60;99.90;;;;;;5037741;28;20075;-87
2022/07/10 05:16:22;;;;;;;2.42;0.70;;;12.70;99.90;;;;;;5029120;28;20033;-87
2022/07/10 05:18:48;;;;;;;1.77;0.70;;;12.70;99.90;;;;;;5036976;28;20395;-87
2022/07/10 05:21:14;;;;;;;2.53;0.60;;;12.90;99.90;;;;;;5050116;28;20036;-87
2022/07/10 05:23:41;;;;;;;0.80;0.75;;;12.90;99.90;;;;;;5032566;28;20033;-85
2022/07/10 05:26:06;;;;;;;0.93;0.60;;;13.10;99.90;;;;;;5040410;28;20032;-88
2022/07/10 05:28:32;;;;;;;2.38;0.60;;;13.10;99.90;;;;;;5040131;28;20032;-86
2022/07/10 05:30:58;;;;;;;0.80;0.55;;;13.20;99.90;;;;;;5047625;28;20036;-85
2022/07/10 05:33:27;;;;;;;2.10;0.98;;;13.40;99.90;;;;;;5033697;28;20029;-84
2022/07/10 05:35:53;;;;;;;2.83;0.60;;;13.60;99.90;;;;;;5074908;28;20518;-85
2022/07/10 05:38:19;;;;;;;0.65;0.50;;;13.80;99.90;;;;;;5034455;28;20033;-86
2022/07/10 05:40:45;;;;;;;1.00;0.40;;;14.10;99.90;;;;;;5040708;28;20036;-84
2022/07/10 05:43:11;;;;;;;1.40;0.50;;;14.30;99.90;;;;;;5041832;28;20135;-85
2022/07/10 05:45:37;;;;;;;2.75;0.50;;;14.50;99.90;;;;;;5037015;28;20534;-84
2022/07/10 05:48:03;;;;;;;0.63;0.40;;;14.80;99.90;;;;;;5053131;28;20119;-84
2022/07/10 05:50:30;;;;;;;1.55;0.52;;;15.30;99.90;;;;;;5043969;28;20115;-84
2022/07/10 05:52:56;;;;;;;1.38;0.40;;;16.00;99.90;;;;;;5011471;28;20054;-85
2022/07/10 05:55:22;;;;;;;1.35;0.40;;;16.70;99.90;;;;;;5068831;28;20043;-86
2022/07/10 05:57:48;;;;;;;3.00;0.60;;;17.20;99.90;;;;;;5036123;28;20029;-85
2022/07/10 06:00:14;;;;;;;1.85;0.55;;;17.60;99.90;;;;;;5066989;28;20062;-84
2022/07/10 06:02:42;;;;;;;0.85;0.40;;;17.80;99.90;;;;;;5053003;28;20028;-84
2022/07/10 06:05:09;;;;;;;3.88;1.70;;;17.60;99.90;;;;;;5041045;28;20035;-84
2022/07/10 06:07:35;;;;;;;1.23;0.50;;;17.60;99.90;;;;;;5036700;28;20036;-83
2022/07/10 06:10:03;;;;;;;1.85;0.40;;;17.60;99.90;;;;;;5036036;28;20025;-83
2022/07/10 06:12:28;;;;;;;1.80;0.40;;;17.40;99.90;;;;;;5036300;28;20399;-84
2022/07/10 06:14:57;;;;;;;1.30;0.50;;;17.10;99.90;;;;;;5037101;28;20375;-85
2022/07/10 06:17:22;;;;;;;2.15;0.60;;;16.60;99.90;;;;;;5034638;28;20040;-84
2022/07/10 06:19:48;;;;;;;2.45;0.60;;;16.30;99.90;;;;;;5034976;28;20039;-84
2022/07/10 06:22:32;;;;;;;2.28;0.75;;;15.90;99.90;;;;;;5033897;28;20494;-83
2022/07/10 06:25:04;;;;;;;1.58;0.57;;;15.60;99.90;;;;;;5049253;28;20032;-84
2022/07/10 06:27:30;;;;;;;1.17;0.50;;;15.30;99.90;;;;;;5032578;28;20049;-83
2022/07/10 06:29:56;;;;;;;4.32;0.77;;;15.10;99.90;;;;;;5021492;28;20497;-83
2022/07/10 06:32:24;;;;;;;1.00;0.50;;;14.90;99.90;;;;;;5035778;28;20521;-84
2022/07/10 06:34:51;;;;;;;1.95;0.55;;;14.70;99.90;;;;;;5033015;28;20029;-84
2022/07/10 06:37:17;;;;;;;2.00;0.80;;;14.60;99.90;;;;;;5050264;28;20052;-85
2022/07/10 06:39:44;;;;;;;1.48;0.70;;;14.50;99.90;;;;;;5042270;28;20041;-85
2022/07/10 06:42:10;;;;;;;2.42;1.65;;;14.40;99.90;;;;;;5059616;28;20605;-87
2022/07/10 06:44:41;;;;;;;0.95;0.60;;;14.30;99.90;;;;;;5045647;28;20112;-86
2022/07/10 06:49:52;;;;;;;1.73;0.70;;;14.40;99.90;;;;;;5042313;28;20069;-86
2022/07/10 06:52:18;;;;;;;1.50;0.80;;;14.80;99.90;;;;;;5034145;28;20395;-84
2022/07/10 06:54:44;;;;;;;5.85;0.90;;;15.10;99.90;;;;;;5070374;28;20043;-86
2022/07/10 06:57:11;;;;;;;1.00;0.57;;;15.20;99.90;;;;;;5052228;28;20123;-85
2022/07/10 06:59:36;;;;;;;2.90;0.60;;;15.10;99.90;;;;;;5052461;28;20066;-84
2022/07/10 07:02:03;;;;;;;1.92;0.50;;;15.60;99.90;;;;;;5032872;28;20061;-85
2022/07/10 07:04:28;;;;;;;2.95;0.65;;;16.20;99.90;;;;;;5036523;28;20028;-84
2022/07/10 07:06:55;;;;;;;4.63;0.70;;;16.60;99.90;;;;;;5006396;28;20028;-84
2022/07/10 07:09:20;;;;;;;3.13;0.90;;;16.80;99.90;;;;;;5019248;28;20028;-84
2022/07/10 07:11:46;;;;;;;2.28;1.05;;;16.70;99.90;;;;;;5036022;28;20040;-87
2022/07/10 07:14:12;;;;;;;3.47;0.57;;;16.70;99.90;;;;;;5021695;28;20381;-85
2022/07/10 07:16:41;;;;;;;10.85;0.80;;;16.70;99.90;;;;;;5042194;28;20032;-84
2022/07/10 07:19:08;;;;;;;2.42;0.55;;;16.60;99.90;;;;;;5003294;28;20478;-84
2022/07/10 07:24:18;;;;;;;1.50;0.40;;;16.90;99.90;;;;;;5035965;28;20646;-87
2022/07/10 07:26:47;;;;;;;1.67;0.50;;;17.40;99.90;;;;;;5036359;28;20040;-85
2022/07/10 07:29:16;;;;;;;1.48;0.40;;;17.90;99.90;;;;;;5052336;28;20287;-86
2022/07/10 07:31:42;;;;;;;1.67;0.40;;;18.50;99.90;;;;;;5035983;28;20036;-86
2022/07/10 07:34:08;;;;;;;1.20;0.45;;;18.70;97.60;;;;;;5036635;28;20040;-86
2022/07/10 07:36:34;;;;;;;1.58;0.47;;;18.60;93.10;;;;;;5051850;28;20040;-84
2022/07/10 07:39:00;;;;;;;4.20;0.50;;;18.30;94.40;;;;;;5055119;28;20074;-85
2022/07/10 07:41:26;;;;;;;0.57;0.40;;;18.00;95.90;;;;;;5039389;28;20428;-85
2022/07/10 07:43:52;;;;;;;2.35;0.50;;;17.60;98.90;;;;;;5039590;28;20170;-85
2022/07/10 07:46:19;;;;;;;0.47;0.40;;;17.30;99.90;;;;;;5052749;28;20509;-86
2022/07/10 07:48:44;;;;;;;0.82;0.43;;;16.90;99.90;;;;;;5052284;28;20032;-85
2022/07/10 07:51:10;;;;;;;0.70;0.40;;;16.60;99.90;;;;;;5038162;28;20406;-86
2022/07/10 07:53:36;;;;;;;2.00;0.60;;;16.30;99.90;;;;;;5022093;28;20041;-85
2022/07/10 07:56:02;;;;;;;1.10;0.50;;;16.20;99.90;;;;;;5019951;28;20037;-85
2022/07/10 07:58:28;;;;;;;1.85;0.47;;;16.00;99.90;;;;;;5025368;28;20086;-85
2022/07/10 08:00:54;;;;;;;0.80;0.40;;;15.90;99.90;;;;;;5036291;28;20032;-85
2022/07/10 08:03:20;;;;;;;3.97;0.95;;;15.80;99.90;;;;;;5038227;28;20060;-86
2022/07/10 08:05:45;;;;;;;1.33;0.70;;;15.70;99.90;;;;;;5033404;28;20542;-86
2022/07/10 08:08:11;;;;;;;1.65;0.65;;;15.60;99.90;;;;;;5036866;28;20124;-87
2022/07/10 08:10:37;;;;;;;1.77;0.52;;;15.50;99.90;;;;;;5017886;28;20051;-87
2022/07/10 08:13:04;;;;;;;1.83;0.90;;;15.60;99.90;;;;;;5036478;28;20060;-84
2022/07/10 08:15:30;;;;;;;1.02;0.30;;;15.60;99.90;;;;;;5045610;28;20029;-86
2022/07/10 08:17:57;;;;;;;1.27;0.40;;;15.70;99.90;;;;;;5038588;28;20713;-84
2022/07/10 08:20:25;;;;;;;0.75;0.30;;;15.80;99.90;;;;;;5054754;28;20033;-85
2022/07/10 08:22:52;;;;;;;0.45;0.40;;;15.90;99.90;;;;;;5021903;28;20632;-85
2022/07/10 08:25:18;;;;;;;1.45;0.30;;;15.90;99.90;;;;;;5038909;28;20427;-85
2022/07/10 08:27:45;;;;;;;1.33;0.40;;;15.90;99.90;;;;;;5055406;28;20025;-87
2022/07/10 08:30:11;;;;;;;1.75;0.40;;;15.90;99.90;;;;;;5054946;28;20036;-85
2022/07/10 08:32:38;;;;;;;1.30;0.30;;;15.70;99.90;;;;;;5054786;28;20029;-86
2022/07/10 08:35:06;;;;;;;0.77;0.28;;;15.60;99.90;;;;;;5055210;28;20072;-86
2022/07/10 08:37:39;;;;;;;0.40;0.30;;;15.60;99.90;;;;;;5037944;28;20028;-86
2022/07/10 08:40:06;;;;;;;0.57;0.40;;;15.50;99.90;;;;;;5054211;28;20036;-85
2022/07/10 08:42:33;;;;;;;1.00;0.40;;;15.50;99.90;;;;;;5017751;28;20029;-86
2022/07/10 08:44:59;;;;;;;1.88;0.30;;;15.50;99.90;;;;;;5034814;28;20033;-85
2022/07/10 08:47:25;;;;;;;2.13;0.30;;;15.50;99.90;;;;;;5053166;28;20048;-87
2022/07/10 08:49:51;;;;;;;4.07;0.30;;;15.50;99.90;;;;;;5036749;28;20106;-89
2022/07/10 08:52:27;;;;;;;0.45;0.35;;;15.60;99.90;;;;;;5034387;28;20056;-86
2022/07/10 08:54:53;;;;;;;0.57;0.30;;;15.60;99.90;;;;;;5054080;28;20044;-86
2022/07/10 08:57:20;;;;;;;0.40;0.30;;;15.50;99.90;;;;;;5054222;28;20040;-86
2022/07/10 08:59:46;;;;;;;3.08;0.30;;;15.50;99.90;;;;;;5036965;28;20428;-86
2022/07/10 09:02:12;;;;;;;2.08;0.28;;;15.50;99.90;;;;;;5037040;28;20037;-86
2022/07/10 09:04:37;;;;;;;2.47;0.20;;;15.40;99.90;;;;;;5021198;28;20028;-87
2022/07/10 09:07:04;;;;;;;0.60;0.28;;;15.30;99.90;;;;;;5033540;28;20519;-87
2022/07/10 09:09:29;;;;;;;1.70;0.30;;;15.20;99.90;;;;;;5019109;28;20408;-87
2022/07/10 09:11:59;;;;;;;0.55;0.20;;;15.20;99.90;;;;;;5028959;28;20078;-85
2022/07/10 09:14:28;;;;;;;1.13;0.30;;;15.30;99.90;;;;;;5034337;28;20041;-87
2022/07/10 09:16:54;;;;;;;2.85;0.35;;;15.40;99.90;;;;;;5037644;28;20067;-85
2022/07/10 09:19:24;;;;;;;1.23;0.20;;;15.50;99.90;;;;;;5051245;28;20057;-87
2022/07/10 09:21:53;;;;;;;2.45;0.30;;;15.70;99.90;;;;;;5036739;28;20029;-86
2022/07/10 09:24:19;;;;;;;0.63;0.20;;;15.90;99.90;;;;;;5053755;28;20550;-85
2022/07/10 09:27:04;;;;;;;0.38;0.10;;;16.10;99.90;;;;;;5050325;28;20098;-87
2022/07/10 09:29:30;;;;;;;1.75;0.20;;;16.30;99.90;;;;;;5053868;28;20033;-87
2022/07/10 09:32:01;;;;;;;1.70;0.30;;;16.50;99.90;;;;;;5053918;28;20073;-87
2022/07/10 09:34:42;;;;;;;1.00;0.22;;;16.60;99.90;;;;;;5037552;28;20037;-88
2022/07/10 09:37:28;;;;;;;1.85;0.30;;;16.80;99.90;;;;;;5050280;28;20033;-86
2022/07/10 09:39:54;;;;;;;;;;;17.10;99.90;;;;;;5018249;28;20075;-85
2022/07/10 09:42:28;;;;;;;0.82;0.80;;;17.20;99.90;;;;;;5033753;28;19944;-87
2022/07/10 09:45:16;;;;;;;0.10;0.10;;;17.30;99.90;;;;;;5051327;28;20533;-87
2022/07/10 09:47:58;;;;;;;0.35;0.10;;;17.60;99.90;;;;;;5017908;28;20056;-86
2022/07/10 09:50:24;;;;;;;0.43;0.10;;;17.70;99.90;;;;;;5035863;28;20503;-87
2022/07/10 09:52:55;;;;;;;1.00;0.20;;;17.90;99.90;;;;;;5037733;28;20074;-85
2022/07/10 09:55:24;;;;;;;0.77;0.13;;;18.00;99.90;;;;;;5038750;28;20501;-86
2022/07/10 09:57:58;;;;;;;0.10;0.10;;;18.10;99.90;;;;;;5037632;28;20034;-87
2022/07/10 10:00:29;;;;;;;0.20;0.10;;;18.10;99.90;;;;;;5035185;28;20029;-87
2022/07/10 10:03:06;;;;;;;2.03;0.30;;;18.00;99.90;;;;;;5054788;28;20036;-87
2022/07/10 10:05:54;;;;;;;0.55;0.20;;;18.00;99.90;;;;;;5025614;28;20070;-86
2022/07/10 10:08:25;;;;;;;0.45;0.22;;;17.90;99.90;;;;;;5035904;28;20041;-86
2022/07/10 10:10:51;;;;;;;0.80;0.20;;;17.90;99.90;;;;;;5053341;28;20039;-85
2022/07/10 10:13:22;;;;;;;0.50;0.28;;;17.90;99.90;;;;;;5022411;28;20033;-87
2022/07/10 10:15:50;;;;;;;0.63;0.20;;;18.00;99.90;;;;;;5038752;28;20047;-85
2022/07/10 10:18:21;;;;;;;0.95;0.28;;;18.10;99.90;;;;;;5037694;28;20067;-86
2022/07/10 10:20:49;;;;;;;1.00;0.20;;;18.20;99.60;;;;;;5021505;28;20498;-84
2022/07/10 10:23:17;;;;;;;1.50;0.32;;;18.50;99.90;;;;;;5038612;28;20062;-86
2022/07/10 10:25:44;;;;;;;2.90;0.40;;;18.60;98.90;;;;;;5020745;28;20037;-87
2022/07/10 10:28:12;;;;;;;1.50;0.25;;;18.70;98.80;;;;;;5030148;28;20138;-85
2022/07/10 10:30:40;;;;;;;1.73;0.13;;;18.80;93.50;;;;;;5026766;28;20427;-84
2022/07/10 10:33:42;;;;;;;0.10;0.10;;;18.80;96.40;;;;;;5054183;28;20035;-85
2022/07/10 10:36:11;;;;;;;0.60;0.20;;;19.00;98.00;;;;;;5011996;28;20098;-85
2022/07/10 10:38:55;;;;;;;0.60;0.10;;;19.10;95.80;;;;;;5037366;28;20033;-85
2022/07/10 10:41:36;;;;;;;0.80;0.15;;;19.20;93.70;;;;;;5047466;28;20032;-85
2022/07/10 10:44:10;;;;;;;0.20;0.10;;;19.20;93.80;;;;;;5050481;28;20585;-86
2022/07/10 10:46:53;;;;;;;0.57;0.10;;;19.30;93.20;;;;;;5029920;28;20048;-84
2022/07/10 10:49:20;;;;;;;0.40;0.10;;;19.30;91.10;;;;;;5045243;28;20029;-85
2022/07/10 10:51:58;;;;;;;0.45;0.10;;;19.20;93.10;;;;;;5026143;28;20167;-85
2022/07/10 10:54:25;;;;;;;0.52;0.13;;;19.20;94.50;;;;;;5045713;28;20067;-85
2022/07/10 10:57:13;;;;;;;0.22;0.20;;;19.10;91.80;;;;;;5035782;28;20048;-85
2022/07/10 10:59:46;;;;;;;0.28;0.20;;;19.00;95.00;;;;;;5032178;28;20395;-85
2022/07/10 11:02:29;;;;;;;0.47;0.20;;;18.80;95.80;;;;;;5049137;28;20032;-86
2022/07/10 11:05:23;;;;;;;0.10;0.10;;;18.80;94.70;;;;;;5052536;28;20051;-85
2022/07/10 11:08:00;;;;;;;0.82;0.20;;;18.80;92.20;;;;;;5032855;28;20075;-86
2022/07/10 11:10:33;;;;;;;0.90;0.20;;;18.90;94.10;;;;;;5018632;28;20037;-85
2022/07/10 11:13:07;;;;;;;1.90;0.13;;;19.10;92.10;;;;;;5056817;28;20024;-84
2022/07/10 11:15:36;;;;;;;0.73;0.10;;;19.30;95.30;;;;;;5039391;28;20033;-86
2022/07/10 11:18:05;;;;;;;1.15;0.20;;;19.50;95.10;;;;;;5055627;28;20056;-86
2022/07/10 11:20:39;;;;;;;1.17;0.30;;;19.60;95.20;;;;;;5038768;28;20024;-87
2022/07/10 11:23:24;;;;;;;0.80;0.20;;;19.70;95.30;;;;;;5039510;28;20038;-86
2022/07/10 11:26:01;;;;;;;0.30;0.20;;;19.80;94.70;;;;;;5056027;28;20033;-85
2022/07/10 11:28:50;;;;;;;1.38;0.35;;;19.80;93.20;;;;;;5039073;28;20115;-86
2022/07/10 11:31:17;;;;;;;0.22;0.17;;;19.80;95.10;;;;;;5027483;28;20128;-85
2022/07/10 11:33:46;;;;;;;0.60;0.20;;;19.80;90.20;;;;;;5035774;28;20037;-86
2022/07/10 11:36:14;;;;;;;2.03;0.50;;;19.80;92.80;;;;;;5055748;28;20032;-86
2022/07/10 11:38:42;;;;;;;3.15;0.32;;;19.90;93.70;;;;;;5052670;28;20020;-85
2022/07/10 11:41:16;;;;;;;1.00;0.30;;;19.80;94.50;;;;;;5039553;28;20035;-84
2022/07/10 11:44:00;;;;;;;1.02;0.30;;;19.80;91.10;;;;;;5056047;28;20033;-87
2022/07/10 11:46:28;;;;;;;3.92;0.73;;;19.70;93.50;;;;;;5055639;28;20056;-87
2022/07/10 11:48:56;;;;;;;2.03;0.20;;;19.80;92.60;;;;;;5038657;28;20036;-87
2022/07/10 11:51:32;;;;;;;1.33;0.65;;;19.80;92.80;;;;;;5058961;28;20028;-88
2022/07/10 11:53:59;;;;;;;2.35;0.52;;;19.80;93.80;;;;;;5036135;28;20033;-87
2022/07/10 11:56:28;;;;;;;2.30;0.45;;;19.70;94.90;;;;;;5051972;28;20029;-86
2022/07/10 11:58:55;;;;;;;0.50;0.30;;;19.90;94.00;;;;;;5034491;28;20029;-86
2022/07/10 12:01:21;;;;;;;1.13;0.30;;;20.00;93.30;;;;;;5035466;28;20059;-86
2022/07/10 12:04:05;;;;;;;1.70;0.60;;;20.10;93.90;;;;;;5038199;28;20032;-87
2022/07/10 12:06:32;;;;;;;1.70;0.40;;;19.90;91.10;;;;;;5051973;28;20029;-87
2022/07/10 12:09:05;;;;;;;0.32;0.30;;;19.90;93.30;;;;;;5038350;28;20033;-85
2022/07/10 12:11:31;;;;;;;1.95;0.77;;;19.90;92.90;;;;;;5056754;28;20043;-87
2022/07/10 12:14:16;;;;;;;2.55;0.28;;;20.00;91.90;;;;;;5039166;28;20036;-85
2022/07/10 12:16:43;;;;;;;0.90;0.20;;;20.10;90.40;;;;;;5030213;28;20040;-84
2022/07/10 12:19:11;;;;;;;0.30;0.20;;;20.30;92.30;;;;;;5039601;28;20044;-84
2022/07/10 12:21:39;;;;;;;1.95;0.30;;;20.50;92.00;;;;;;5034963;28;20029;-84
2022/07/10 12:24:05;;;;;;;1.15;0.20;;;20.60;87.70;;;;;;5035627;28;20048;-86
2022/07/10 12:26:34;;;;;;;0.95;0.30;;;20.70;91.90;;;;;;5039754;28;20028;-85
2022/07/10 12:29:01;;;;;;;0.52;0.30;;;20.70;91.60;;;;;;5054750;28;20486;-85
2022/07/10 12:31:34;;;;;;;1.08;0.35;;;20.80;90.10;;;;;;5022353;28;20033;-86
2022/07/10 12:34:05;;;;;;;0.20;0.20;;;20.80;89.40;;;;;;5055225;28;20938;-84
2022/07/10 12:36:50;;;;;;;0.30;0.20;;;21.00;91.30;;;;;;5039836;28;20047;-86
2022/07/10 12:39:18;;;;;;;0.77;0.30;;;21.10;90.00;;;;;;5020759;28;20503;-85
2022/07/10 12:41:57;;;;;;;0.20;0.20;;;21.30;90.10;;;;;;5055244;28;20033;-87
2022/07/10 12:44:30;;;;;;;0.20;0.20;;;21.40;84.60;;;;;;5056983;28;20063;-87
2022/07/10 12:47:25;;;;;;;0.20;0.20;;;21.40;80.80;;;;;;5053402;28;20029;-86
2022/07/10 12:49:52;;;;;;;1.15;0.30;;;21.20;84.20;;;;;;5024418;28;20105;-87
2022/07/10 12:52:27;;;;;;;0.30;0.20;;;21.00;85.70;;;;;;5050301;28;20442;-87
2022/07/10 12:55:09;;;;;;;;;;;20.70;88.20;;;;;;5073661;28;20089;-85
2022/07/10 12:58:14;;;;;;;0.60;0.20;;;20.40;89.40;;;;;;5040231;28;19914;-86
2022/07/10 13:00:50;;;;;;;2.05;0.30;;;20.10;89.80;;;;;;4960435;28;20045;-85
2022/07/10 13:03:22;;;;;;;0.28;0.28;;;20.10;90.20;;;;;;4943790;28;20441;-88